Terminal Aerodrome Forecast
Issued by NWS Mt. Holly, NJ

Home | Current Version | Previous Version | Text Only | Print | Product List | Glossary On
Versions: 1 2 3 4 5 6 7 8 9 10 11 12 13 14 15 16 17
000
FTUS41 KPHI 242321
TAFTTN
TAF
KTTN 242321Z 2500/2524 VRB02KT P6SM SKC
     FM251600 24008KT P6SM SCT050 BKN250
     FM252200 28007KT P6SM BKN050 OVC100=

USA.gov is the U.S. government's official web portal to all federal, state and local government web resources and services.